sensor_id;sensor_type;location;lat;lon;timestamp;temperature;humidity
10692;DHT22;5396;50.950;6.988;2022-10-17T00:00:18;15.70;99.90
10692;DHT22;5396;50.950;6.988;2022-10-17T00:02:43;15.70;99.90
10692;DHT22;5396;50.950;6.988;2022-10-17T00:05:09;15.60;99.90
10692;DHT22;5396;50.950;6.988;2022-10-17T00:07:36;15.60;99.90
10692;DHT22;5396;50.950;6.988;2022-10-17T00:10:02;15.60;99.90
10692;DHT22;5396;50.950;6.988;2022-10-17T00:12:28;15.60;99.90
10692;DHT22;5396;50.950;6.988;2022-10-17T00:14:53;15.60;99.90
10692;DHT22;5396;50.950;6.988;2022-10-17T00:17:19;15.60;99.90
10692;DHT22;5396;50.950;6.988;2022-10-17T00:19:45;15.60;99.90
10692;DHT22;5396;50.950;6.988;2022-10-17T00:22:11;15.60;99.90
10692;DHT22;5396;50.950;6.988;2022-10-17T00:24:37;15.50;99.90
10692;DHT22;5396;50.950;6.988;2022-10-17T00:27:02;15.50;99.90
10692;DHT22;5396;50.950;6.988;2022-10-17T00:29:28;15.50;99.90
10692;DHT22;5396;50.950;6.988;2022-10-17T00:31:55;15.50;99.90
10692;DHT22;5396;50.950;6.988;2022-10-17T00:34:21;15.50;99.90
10692;DHT22;5396;50.950;6.988;2022-10-17T00:36:47;15.50;99.90
10692;DHT22;5396;50.950;6.988;2022-10-17T00:39:13;15.50;99.90
10692;DHT22;5396;50.950;6.988;2022-10-17T00:41:38;15.50;99.90
10692;DHT22;5396;50.950;6.988;2022-10-17T00:44:53;15.50;99.90
10692;DHT22;5396;50.950;6.988;2022-10-17T00:46:51;15.50;99.90
10692;DHT22;5396;50.950;6.988;2022-10-17T00:49:18;15.50;99.90
10692;DHT22;5396;50.950;6.988;2022-10-17T00:51:45;15.50;99.90
10692;DHT22;5396;50.950;6.988;2022-10-17T00:54:13;15.50;99.90
10692;DHT22;5396;50.950;6.988;2022-10-17T00:56:39;15.50;99.90
10692;DHT22;5396;50.950;6.988;2022-10-17T00:59:07;15.50;99.90
10692;DHT22;5396;50.950;6.988;2022-10-17T01:01:33;15.50;99.90
10692;DHT22;5396;50.950;6.988;2022-10-17T01:03:59;15.50;99.90
10692;DHT22;5396;50.950;6.988;2022-10-17T01:06:25;15.50;99.90
10692;DHT22;5396;50.950;6.988;2022-10-17T01:08:50;15.50;99.90
10692;DHT22;5396;50.950;6.988;2022-10-17T01:15:01;15.50;99.90
10692;DHT22;5396;50.950;6.988;2022-10-17T01:21:13;15.50;99.90
10692;DHT22;5396;50.950;6.988;2022-10-17T01:24:07;15.50;99.90
10692;DHT22;5396;50.950;6.988;2022-10-17T01:26:53;15.50;99.90
10692;DHT22;5396;50.950;6.988;2022-10-17T01:29:31;15.50;99.90
10692;DHT22;5396;50.950;6.988;2022-10-17T01:34:46;15.50;99.90
10692;DHT22;5396;50.950;6.988;2022-10-17T01:37:23;15.50;99.90
10692;DHT22;5396;50.950;6.988;2022-10-17T01:40:08;15.40;99.90
10692;DHT22;5396;50.950;6.988;2022-10-17T01:45:16;15.40;99.90
10692;DHT22;5396;50.950;6.988;2022-10-17T01:47:45;15.40;99.90
10692;DHT22;5396;50.950;6.988;2022-10-17T01:50:25;15.40;99.90
10692;DHT22;5396;50.950;6.988;2022-10-17T01:52:56;15.40;99.90
10692;DHT22;5396;50.950;6.988;2022-10-17T01:55:33;15.50;99.90
10692;DHT22;5396;50.950;6.988;2022-10-17T01:58:06;15.50;99.90
10692;DHT22;5396;50.950;6.988;2022-10-17T02:00:34;15.50;99.90
10692;DHT22;5396;50.950;6.988;2022-10-17T02:03:06;15.50;99.90
10692;DHT22;5396;50.950;6.988;2022-10-17T02:05:39;15.50;99.90
10692;DHT22;5396;50.950;6.988;2022-10-17T02:08:05;15.50;99.90
10692;DHT22;5396;50.950;6.988;2022-10-17T02:10:49;15.50;99.90
10692;DHT22;5396;50.950;6.988;2022-10-17T02:15:58;15.50;99.90
10692;DHT22;5396;50.950;6.988;2022-10-17T02:18:40;15.50;99.90
10692;DHT22;5396;50.950;6.988;2022-10-17T02:21:19;15.50;99.90
10692;DHT22;5396;50.950;6.988;2022-10-17T02:23:57;15.60;99.90
10692;DHT22;5396;50.950;6.988;2022-10-17T02:26:45;15.60;99.90
10692;DHT22;5396;50.950;6.988;2022-10-17T02:29:15;15.70;99.90
10692;DHT22;5396;50.950;6.988;2022-10-17T02:31:46;15.70;99.90
10692;DHT22;5396;50.950;6.988;2022-10-17T02:34:27;15.80;99.90
10692;DHT22;5396;50.950;6.988;2022-10-17T02:36:59;15.80;99.90
10692;DHT22;5396;50.950;6.988;2022-10-17T02:39:27;15.80;99.90
10692;DHT22;5396;50.950;6.988;2022-10-17T02:41:56;15.80;99.90
10692;DHT22;5396;50.950;6.988;2022-10-17T02:44:24;15.90;99.90
10692;DHT22;5396;50.950;6.988;2022-10-17T02:46:54;15.90;99.90
10692;DHT22;5396;50.950;6.988;2022-10-17T02:49:27;15.90;99.90
10692;DHT22;5396;50.950;6.988;2022-10-17T02:54:38;15.90;99.90
10692;DHT22;5396;50.950;6.988;2022-10-17T02:57:17;15.90;99.90
10692;DHT22;5396;50.950;6.988;2022-10-17T02:59:46;15.90;99.90
10692;DHT22;5396;50.950;6.988;2022-10-17T03:02:13;16.00;99.90
10692;DHT22;5396;50.950;6.988;2022-10-17T03:04:42;16.00;99.90
10692;DHT22;5396;50.950;6.988;2022-10-17T03:07:07;16.10;99.90
10692;DHT22;5396;50.950;6.988;2022-10-17T03:09:33;16.10;99.90
10692;DHT22;5396;50.950;6.988;2022-10-17T03:11:58;16.10;99.90
10692;DHT22;5396;50.950;6.988;2022-10-17T03:14:24;16.10;99.90
10692;DHT22;5396;50.950;6.988;2022-10-17T03:16:49;16.10;99.90
10692;DHT22;5396;50.950;6.988;2022-10-17T03:19:15;16.10;99.90
10692;DHT22;5396;50.950;6.988;2022-10-17T03:21:40;16.10;99.90
10692;DHT22;5396;50.950;6.988;2022-10-17T03:24:06;16.10;99.90
10692;DHT22;5396;50.950;6.988;2022-10-17T03:26:32;16.10;99.90
10692;DHT22;5396;50.950;6.988;2022-10-17T03:28:57;16.20;99.90
10692;DHT22;5396;50.950;6.988;2022-10-17T03:31:23;16.20;99.90
10692;DHT22;5396;50.950;6.988;2022-10-17T03:33:48;16.20;99.90
10692;DHT22;5396;50.950;6.988;2022-10-17T03:36:16;16.10;99.90
10692;DHT22;5396;50.950;6.988;2022-10-17T03:38:44;16.10;99.90
10692;DHT22;5396;50.950;6.988;2022-10-17T03:41:10;16.10;99.90
10692;DHT22;5396;50.950;6.988;2022-10-17T03:43:36;16.10;99.90
10692;DHT22;5396;50.950;6.988;2022-10-17T03:46:02;16.10;99.90
10692;DHT22;5396;50.950;6.988;2022-10-17T03:48:28;16.10;99.90
10692;DHT22;5396;50.950;6.988;2022-10-17T03:51:06;16.20;99.90
10692;DHT22;5396;50.950;6.988;2022-10-17T03:53:32;16.20;99.90
10692;DHT22;5396;50.950;6.988;2022-10-17T03:56:21;16.20;99.90
10692;DHT22;5396;50.950;6.988;2022-10-17T03:58:47;16.20;99.90
10692;DHT22;5396;50.950;6.988;2022-10-17T04:01:14;16.20;99.90
10692;DHT22;5396;50.950;6.988;2022-10-17T04:03:40;16.20;99.90
10692;DHT22;5396;50.950;6.988;2022-10-17T04:06:07;16.20;99.90
10692;DHT22;5396;50.950;6.988;2022-10-17T04:08:35;16.20;99.90
10692;DHT22;5396;50.950;6.988;2022-10-17T04:11:06;16.20;99.90
10692;DHT22;5396;50.950;6.988;2022-10-17T04:13:32;16.30;99.90
10692;DHT22;5396;50.950;6.988;2022-10-17T04:16:03;16.30;99.90
10692;DHT22;5396;50.950;6.988;2022-10-17T04:18:29;16.30;99.90
10692;DHT22;5396;50.950;6.988;2022-10-17T04:20:55;16.30;99.90
10692;DHT22;5396;50.950;6.988;2022-10-17T04:23:21;16.40;99.90
10692;DHT22;5396;50.950;6.988;2022-10-17T04:25:47;16.40;99.90
10692;DHT22;5396;50.950;6.988;2022-10-17T04:28:12;16.40;99.90
10692;DHT22;5396;50.950;6.988;2022-10-17T04:30:38;16.50;99.90
10692;DHT22;5396;50.950;6.988;2022-10-17T04:33:04;16.50;99.90
10692;DHT22;5396;50.950;6.988;2022-10-17T04:35:30;16.50;99.90
10692;DHT22;5396;50.950;6.988;2022-10-17T04:37:55;16.60;99.90
10692;DHT22;5396;50.950;6.988;2022-10-17T04:40:21;16.50;99.90
10692;DHT22;5396;50.950;6.988;2022-10-17T04:42:47;16.60;99.90
10692;DHT22;5396;50.950;6.988;2022-10-17T04:45:12;16.60;99.90
10692;DHT22;5396;50.950;6.988;2022-10-17T04:47:38;16.60;99.90
10692;DHT22;5396;50.950;6.988;2022-10-17T04:50:04;16.60;99.90
10692;DHT22;5396;50.950;6.988;2022-10-17T04:52:30;16.60;99.90
10692;DHT22;5396;50.950;6.988;2022-10-17T04:54:56;16.60;99.90
10692;DHT22;5396;50.950;6.988;2022-10-17T04:57:21;16.50;99.90
10692;DHT22;5396;50.950;6.988;2022-10-17T04:59:47;16.50;99.90
10692;DHT22;5396;50.950;6.988;2022-10-17T05:02:12;16.50;99.90
10692;DHT22;5396;50.950;6.988;2022-10-17T05:04:38;16.50;99.90
10692;DHT22;5396;50.950;6.988;2022-10-17T05:07:03;16.50;99.90
10692;DHT22;5396;50.950;6.988;2022-10-17T05:09:29;16.50;99.90
10692;DHT22;5396;50.950;6.988;2022-10-17T05:11:55;16.50;99.90
10692;DHT22;5396;50.950;6.988;2022-10-17T05:14:20;16.40;99.90
10692;DHT22;5396;50.950;6.988;2022-10-17T05:16:46;16.40;99.90
10692;DHT22;5396;50.950;6.988;2022-10-17T05:19:11;16.40;99.90
10692;DHT22;5396;50.950;6.988;2022-10-17T05:21:37;16.40;99.90
10692;DHT22;5396;50.950;6.988;2022-10-17T05:24:12;16.50;99.90
10692;DHT22;5396;50.950;6.988;2022-10-17T05:26:37;16.50;99.90
10692;DHT22;5396;50.950;6.988;2022-10-17T05:29:03;16.50;99.90
10692;DHT22;5396;50.950;6.988;2022-10-17T05:31:29;16.50;99.90
10692;DHT22;5396;50.950;6.988;2022-10-17T05:33:58;16.50;99.90
10692;DHT22;5396;50.950;6.988;2022-10-17T05:36:24;16.50;99.90
10692;DHT22;5396;50.950;6.988;2022-10-17T05:38:50;16.60;99.90
10692;DHT22;5396;50.950;6.988;2022-10-17T05:41:17;16.50;99.90
10692;DHT22;5396;50.950;6.988;2022-10-17T05:43:43;16.50;99.90
10692;DHT22;5396;50.950;6.988;2022-10-17T05:46:09;16.50;99.90
10692;DHT22;5396;50.950;6.988;2022-10-17T05:48:34;16.50;99.90
10692;DHT22;5396;50.950;6.988;2022-10-17T05:51:02;16.50;99.90
10692;DHT22;5396;50.950;6.988;2022-10-17T05:53:33;16.50;99.90
10692;DHT22;5396;50.950;6.988;2022-10-17T05:56:01;16.50;99.90
10692;DHT22;5396;50.950;6.988;2022-10-17T05:58:27;16.50;99.90
10692;DHT22;5396;50.950;6.988;2022-10-17T06:01:04;16.50;99.90
10692;DHT22;5396;50.950;6.988;2022-10-17T06:03:30;16.50;99.90
10692;DHT22;5396;50.950;6.988;2022-10-17T06:05:56;16.50;99.90
10692;DHT22;5396;50.950;6.988;2022-10-17T06:08:26;16.50;99.90
10692;DHT22;5396;50.950;6.988;2022-10-17T06:10:52;16.50;99.90
10692;DHT22;5396;50.950;6.988;2022-10-17T06:13:18;16.50;99.90
10692;DHT22;5396;50.950;6.988;2022-10-17T06:15:44;16.50;99.90
10692;DHT22;5396;50.950;6.988;2022-10-17T06:18:10;16.50;99.90
10692;DHT22;5396;50.950;6.988;2022-10-17T06:20:36;16.40;99.90
10692;DHT22;5396;50.950;6.988;2022-10-17T06:23:02;16.40;99.90
10692;DHT22;5396;50.950;6.988;2022-10-17T06:25:30;16.40;99.90
10692;DHT22;5396;50.950;6.988;2022-10-17T06:27:55;16.40;99.90
10692;DHT22;5396;50.950;6.988;2022-10-17T06:30:21;16.40;99.90
10692;DHT22;5396;50.950;6.988;2022-10-17T06:32:47;16.40;99.90
10692;DHT22;5396;50.950;6.988;2022-10-17T06:35:13;16.50;99.90
10692;DHT22;5396;50.950;6.988;2022-10-17T06:37:38;16.50;99.90
10692;DHT22;5396;50.950;6.988;2022-10-17T06:40:04;16.50;99.90
10692;DHT22;5396;50.950;6.988;2022-10-17T06:42:33;16.50;99.90
10692;DHT22;5396;50.950;6.988;2022-10-17T06:44:59;16.60;99.90
10692;DHT22;5396;50.950;6.988;2022-10-17T06:47:24;16.60;99.90
10692;DHT22;5396;50.950;6.988;2022-10-17T06:49:50;16.60;99.90
10692;DHT22;5396;50.950;6.988;2022-10-17T06:52:15;16.60;99.90
10692;DHT22;5396;50.950;6.988;2022-10-17T06:54:42;16.70;99.90
10692;DHT22;5396;50.950;6.988;2022-10-17T06:57:07;16.70;99.90
10692;DHT22;5396;50.950;6.988;2022-10-17T06:59:33;16.80;99.90
10692;DHT22;5396;50.950;6.988;2022-10-17T07:02:00;16.80;99.90
10692;DHT22;5396;50.950;6.988;2022-10-17T07:04:26;16.90;99.90
10692;DHT22;5396;50.950;6.988;2022-10-17T07:06:52;17.00;99.90
10692;DHT22;5396;50.950;6.988;2022-10-17T07:09:18;17.00;99.90
10692;DHT22;5396;50.950;6.988;2022-10-17T07:11:43;17.10;99.90
10692;DHT22;5396;50.950;6.988;2022-10-17T07:14:09;17.20;99.90
10692;DHT22;5396;50.950;6.988;2022-10-17T07:16:35;17.30;99.90
10692;DHT22;5396;50.950;6.988;2022-10-17T07:19:01;17.30;99.90
10692;DHT22;5396;50.950;6.988;2022-10-17T07:21:26;17.40;99.90
10692;DHT22;5396;50.950;6.988;2022-10-17T07:23:52;17.50;99.90
10692;DHT22;5396;50.950;6.988;2022-10-17T07:26:18;17.50;99.90
10692;DHT22;5396;50.950;6.988;2022-10-17T07:28:45;17.60;99.90
10692;DHT22;5396;50.950;6.988;2022-10-17T07:31:16;17.70;99.90
10692;DHT22;5396;50.950;6.988;2022-10-17T07:33:42;17.70;99.90
10692;DHT22;5396;50.950;6.988;2022-10-17T07:36:11;17.80;99.90
10692;DHT22;5396;50.950;6.988;2022-10-17T07:38:37;17.80;99.90
10692;DHT22;5396;50.950;6.988;2022-10-17T07:41:04;17.80;99.90
10692;DHT22;5396;50.950;6.988;2022-10-17T07:43:30;17.80;99.90
10692;DHT22;5396;50.950;6.988;2022-10-17T07:45:56;17.80;99.90
10692;DHT22;5396;50.950;6.988;2022-10-17T07:48:23;17.80;99.90
10692;DHT22;5396;50.950;6.988;2022-10-17T07:50:49;17.80;99.90
10692;DHT22;5396;50.950;6.988;2022-10-17T07:53:15;17.90;99.90
10692;DHT22;5396;50.950;6.988;2022-10-17T07:55:41;17.90;99.90
10692;DHT22;5396;50.950;6.988;2022-10-17T07:58:08;18.00;99.90
10692;DHT22;5396;50.950;6.988;2022-10-17T08:00:34;18.00;99.90
10692;DHT22;5396;50.950;6.988;2022-10-17T08:03:00;18.00;99.90
10692;DHT22;5396;50.950;6.988;2022-10-17T08:05:26;18.10;99.90
10692;DHT22;5396;50.950;6.988;2022-10-17T08:07:51;18.10;99.90
10692;DHT22;5396;50.950;6.988;2022-10-17T08:10:17;18.20;99.90
10692;DHT22;5396;50.950;6.988;2022-10-17T08:12:43;18.20;99.90
10692;DHT22;5396;50.950;6.988;2022-10-17T08:15:09;18.30;99.90
10692;DHT22;5396;50.950;6.988;2022-10-17T08:17:36;18.40;99.90
10692;DHT22;5396;50.950;6.988;2022-10-17T08:20:03;18.40;99.90
10692;DHT22;5396;50.950;6.988;2022-10-17T08:22:30;18.50;99.90
10692;DHT22;5396;50.950;6.988;2022-10-17T08:24:55;18.50;99.90
10692;DHT22;5396;50.950;6.988;2022-10-17T08:27:21;18.50;99.90
10692;DHT22;5396;50.950;6.988;2022-10-17T08:29:52;18.60;99.90
10692;DHT22;5396;50.950;6.988;2022-10-17T08:32:19;18.60;99.90
10692;DHT22;5396;50.950;6.988;2022-10-17T08:34:45;18.60;99.90
10692;DHT22;5396;50.950;6.988;2022-10-17T08:37:11;18.60;99.90
10692;DHT22;5396;50.950;6.988;2022-10-17T08:39:39;18.60;99.90
10692;DHT22;5396;50.950;6.988;2022-10-17T08:42:15;18.70;99.90
10692;DHT22;5396;50.950;6.988;2022-10-17T08:47:13;18.80;99.90
10692;DHT22;5396;50.950;6.988;2022-10-17T08:49:51;19.00;99.90
10692;DHT22;5396;50.950;6.988;2022-10-17T08:52:37;19.10;99.90
10692;DHT22;5396;50.950;6.988;2022-10-17T08:55:55;19.10;99.90
10692;DHT22;5396;50.950;6.988;2022-10-17T08:57:55;19.20;99.90
10692;DHT22;5396;50.950;6.988;2022-10-17T09:00:21;19.30;99.90
10692;DHT22;5396;50.950;6.988;2022-10-17T09:03:13;19.30;99.90
10692;DHT22;5396;50.950;6.988;2022-10-17T09:05:48;19.30;99.90
10692;DHT22;5396;50.950;6.988;2022-10-17T09:08:28;19.30;99.90
10692;DHT22;5396;50.950;6.988;2022-10-17T09:11:02;19.30;99.90
10692;DHT22;5396;50.950;6.988;2022-10-17T09:18:55;19.50;99.90
10692;DHT22;5396;50.950;6.988;2022-10-17T09:23:58;19.70;99.90
10692;DHT22;5396;50.950;6.988;2022-10-17T09:26:24;19.70;99.90
10692;DHT22;5396;50.950;6.988;2022-10-17T09:28:58;19.70;99.90
10692;DHT22;5396;50.950;6.988;2022-10-17T09:31:29;19.80;99.90
10692;DHT22;5396;50.950;6.988;2022-10-17T09:34:00;19.80;99.90
10692;DHT22;5396;50.950;6.988;2022-10-17T09:36:29;19.80;99.90
10692;DHT22;5396;50.950;6.988;2022-10-17T09:39:01;19.80;99.90
10692;DHT22;5396;50.950;6.988;2022-10-17T09:41:35;19.90;99.90
10692;DHT22;5396;50.950;6.988;2022-10-17T09:44:41;20.00;99.90
10692;DHT22;5396;50.950;6.988;2022-10-17T09:49:54;20.10;99.90
10692;DHT22;5396;50.950;6.988;2022-10-17T09:52:21;20.10;99.90
10692;DHT22;5396;50.950;6.988;2022-10-17T09:54:55;20.10;99.90
10692;DHT22;5396;50.950;6.988;2022-10-17T09:57:21;20.20;99.90
10692;DHT22;5396;50.950;6.988;2022-10-17T09:59:59;20.10;99.90
10692;DHT22;5396;50.950;6.988;2022-10-17T10:02:27;20.20;99.90
10692;DHT22;5396;50.950;6.988;2022-10-17T10:07:19;20.30;99.90
10692;DHT22;5396;50.950;6.988;2022-10-17T10:09:46;20.30;99.90
10692;DHT22;5396;50.950;6.988;2022-10-17T10:12:30;20.40;99.90
10692;DHT22;5396;50.950;6.988;2022-10-17T10:14:56;20.60;99.90
10692;DHT22;5396;50.950;6.988;2022-10-17T10:19:54;20.90;99.90
10692;DHT22;5396;50.950;6.988;2022-10-17T10:22:21;21.10;99.90
10692;DHT22;5396;50.950;6.988;2022-10-17T10:25:15;21.20;99.90
10692;DHT22;5396;50.950;6.988;2022-10-17T10:27:43;21.40;99.90
10692;DHT22;5396;50.950;6.988;2022-10-17T10:30:19;21.30;99.90
10692;DHT22;5396;50.950;6.988;2022-10-17T10:32:47;21.20;99.90
10692;DHT22;5396;50.950;6.988;2022-10-17T10:35:34;21.20;99.90
10692;DHT22;5396;50.950;6.988;2022-10-17T10:38:01;21.10;99.90
10692;DHT22;5396;50.950;6.988;2022-10-17T10:40:49;21.20;99.90
10692;DHT22;5396;50.950;6.988;2022-10-17T10:43:39;21.20;99.90
10692;DHT22;5396;50.950;6.988;2022-10-17T10:46:23;21.20;99.90
10692;DHT22;5396;50.950;6.988;2022-10-17T10:48:58;21.10;99.90
10692;DHT22;5396;50.950;6.988;2022-10-17T10:51:44;21.00;99.90
10692;DHT22;5396;50.950;6.988;2022-10-17T10:54:27;21.00;99.90
10692;DHT22;5396;50.950;6.988;2022-10-17T10:57:00;21.00;99.90
10692;DHT22;5396;50.950;6.988;2022-10-17T10:59:38;21.00;99.90
10692;DHT22;5396;50.950;6.988;2022-10-17T11:02:32;21.00;99.90
10692;DHT22;5396;50.950;6.988;2022-10-17T11:10:25;21.10;99.90
10692;DHT22;5396;50.950;6.988;2022-10-17T11:13:09;21.10;99.90
10692;DHT22;5396;50.950;6.988;2022-10-17T11:18:33;21.00;99.90
10692;DHT22;5396;50.950;6.988;2022-10-17T11:21:05;20.90;99.90
10692;DHT22;5396;50.950;6.988;2022-10-17T11:23:41;20.90;99.90
10692;DHT22;5396;50.950;6.988;2022-10-17T11:26:14;20.90;99.90
10692;DHT22;5396;50.950;6.988;2022-10-17T11:28:40;20.90;99.90
10692;DHT22;5396;50.950;6.988;2022-10-17T11:31:09;21.00;99.90
10692;DHT22;5396;50.950;6.988;2022-10-17T11:33:59;21.10;99.90
10692;DHT22;5396;50.950;6.988;2022-10-17T11:36:34;21.00;99.90
10692;DHT22;5396;50.950;6.988;2022-10-17T11:42:10;21.10;99.90
10692;DHT22;5396;50.950;6.988;2022-10-17T11:44:38;21.10;99.90
10692;DHT22;5396;50.950;6.988;2022-10-17T11:50:02;21.20;99.90
10692;DHT22;5396;50.950;6.988;2022-10-17T11:52:40;21.20;99.90
10692;DHT22;5396;50.950;6.988;2022-10-17T11:55:24;21.20;99.90
10692;DHT22;5396;50.950;6.988;2022-10-17T12:00:55;21.20;99.90
10692;DHT22;5396;50.950;6.988;2022-10-17T12:09:23;21.30;99.90
10692;DHT22;5396;50.950;6.988;2022-10-17T12:12:01;21.30;99.90
10692;DHT22;5396;50.950;6.988;2022-10-17T12:14:44;21.30;99.90
10692;DHT22;5396;50.950;6.988;2022-10-17T12:19:45;21.30;99.90
10692;DHT22;5396;50.950;6.988;2022-10-17T12:22:21;21.30;99.90
10692;DHT22;5396;50.950;6.988;2022-10-17T12:24:58;21.30;99.90
10692;DHT22;5396;50.950;6.988;2022-10-17T12:27:43;21.20;99.90
10692;DHT22;5396;50.950;6.988;2022-10-17T12:30:18;21.20;99.90
10692;DHT22;5396;50.950;6.988;2022-10-17T12:33:01;21.20;99.90
10692;DHT22;5396;50.950;6.988;2022-10-17T12:35:29;21.20;99.90
10692;DHT22;5396;50.950;6.988;2022-10-17T12:43:22;21.30;99.90
10692;DHT22;5396;50.950;6.988;2022-10-17T12:45:58;21.40;99.90
10692;DHT22;5396;50.950;6.988;2022-10-17T12:51:11;21.30;99.90
10692;DHT22;5396;50.950;6.988;2022-10-17T12:53:48;21.30;99.90
10692;DHT22;5396;50.950;6.988;2022-10-17T12:56:29;21.30;99.90
10692;DHT22;5396;50.950;6.988;2022-10-17T12:58:56;21.30;99.90
10692;DHT22;5396;50.950;6.988;2022-10-17T13:01:29;21.30;99.90
10692;DHT22;5396;50.950;6.988;2022-10-17T13:03:56;21.40;99.90
10692;DHT22;5396;50.950;6.988;2022-10-17T13:06:28;21.40;99.90
10692;DHT22;5396;50.950;6.988;2022-10-17T13:08:59;21.30;99.90
10692;DHT22;5396;50.950;6.988;2022-10-17T13:11:28;21.40;99.90
10692;DHT22;5396;50.950;6.988;2022-10-17T13:13:58;21.40;99.90
10692;DHT22;5396;50.950;6.988;2022-10-17T13:16:32;21.50;99.90
10692;DHT22;5396;50.950;6.988;2022-10-17T13:18:59;21.50;99.90
10692;DHT22;5396;50.950;6.988;2022-10-17T13:21:25;21.50;99.90
10692;DHT22;5396;50.950;6.988;2022-10-17T13:23:51;21.50;99.90
10692;DHT22;5396;50.950;6.988;2022-10-17T13:26:24;21.50;99.90
10692;DHT22;5396;50.950;6.988;2022-10-17T13:29:05;21.50;99.90
10692;DHT22;5396;50.950;6.988;2022-10-17T13:31:34;21.50;99.90
10692;DHT22;5396;50.950;6.988;2022-10-17T13:34:02;21.50;99.90
10692;DHT22;5396;50.950;6.988;2022-10-17T13:36:29;21.60;99.90
10692;DHT22;5396;50.950;6.988;2022-10-17T13:39:03;21.60;99.90
10692;DHT22;5396;50.950;6.988;2022-10-17T13:41:31;21.50;99.90
10692;DHT22;5396;50.950;6.988;2022-10-17T13:44:00;21.50;99.90
10692;DHT22;5396;50.950;6.988;2022-10-17T13:46:32;21.40;99.90
10692;DHT22;5396;50.950;6.988;2022-10-17T13:48:59;21.40;99.90
10692;DHT22;5396;50.950;6.988;2022-10-17T13:51:33;21.40;99.90
10692;DHT22;5396;50.950;6.988;2022-10-17T13:53:59;21.40;99.90
10692;DHT22;5396;50.950;6.988;2022-10-17T13:56:26;21.50;99.90
10692;DHT22;5396;50.950;6.988;2022-10-17T13:58:54;21.40;99.90
10692;DHT22;5396;50.950;6.988;2022-10-17T14:01:23;21.40;99.90
10692;DHT22;5396;50.950;6.988;2022-10-17T14:03:49;21.40;99.90
10692;DHT22;5396;50.950;6.988;2022-10-17T14:06:22;21.40;99.90
10692;DHT22;5396;50.950;6.988;2022-10-17T14:11:33;21.60;99.90
10692;DHT22;5396;50.950;6.988;2022-10-17T14:14:01;21.70;99.90
10692;DHT22;5396;50.950;6.988;2022-10-17T14:16:37;21.70;99.90
10692;DHT22;5396;50.950;6.988;2022-10-17T14:19:04;21.90;99.90
10692;DHT22;5396;50.950;6.988;2022-10-17T14:21:30;21.90;99.90
10692;DHT22;5396;50.950;6.988;2022-10-17T14:24:28;22.00;99.90
10692;DHT22;5396;50.950;6.988;2022-10-17T14:26:56;22.10;99.90
10692;DHT22;5396;50.950;6.988;2022-10-17T14:29:31;22.10;99.90
10692;DHT22;5396;50.950;6.988;2022-10-17T14:32:14;22.20;99.90
10692;DHT22;5396;50.950;6.988;2022-10-17T14:34:40;22.20;99.90
10692;DHT22;5396;50.950;6.988;2022-10-17T14:37:11;22.10;99.90
10692;DHT22;5396;50.950;6.988;2022-10-17T14:39:37;22.10;99.90
10692;DHT22;5396;50.950;6.988;2022-10-17T14:42:03;22.10;99.90
10692;DHT22;5396;50.950;6.988;2022-10-17T14:44:34;22.10;99.90
10692;DHT22;5396;50.950;6.988;2022-10-17T14:47:05;22.10;99.90
10692;DHT22;5396;50.950;6.988;2022-10-17T14:49:37;22.10;99.90
10692;DHT22;5396;50.950;6.988;2022-10-17T14:54:48;22.10;99.90
10692;DHT22;5396;50.950;6.988;2022-10-17T14:57:33;22.10;99.90
10692;DHT22;5396;50.950;6.988;2022-10-17T15:00:05;22.10;99.90
10692;DHT22;5396;50.950;6.988;2022-10-17T15:02:30;22.10;99.90
10692;DHT22;5396;50.950;6.988;2022-10-17T15:04:56;22.00;99.90
10692;DHT22;5396;50.950;6.988;2022-10-17T15:07:22;22.00;99.90
10692;DHT22;5396;50.950;6.988;2022-10-17T15:09:49;22.00;99.90
10692;DHT22;5396;50.950;6.988;2022-10-17T15:12:17;22.00;99.90
10692;DHT22;5396;50.950;6.988;2022-10-17T15:14:44;22.00;99.90
10692;DHT22;5396;50.950;6.988;2022-10-17T15:17:24;21.90;99.90
10692;DHT22;5396;50.950;6.988;2022-10-17T15:19:51;21.90;99.90
10692;DHT22;5396;50.950;6.988;2022-10-17T15:22:16;21.90;99.90
10692;DHT22;5396;50.950;6.988;2022-10-17T15:24:43;21.80;99.90
10692;DHT22;5396;50.950;6.988;2022-10-17T15:27:19;21.80;99.90
10692;DHT22;5396;50.950;6.988;2022-10-17T15:29:46;21.70;99.90
10692;DHT22;5396;50.950;6.988;2022-10-17T15:32:11;21.70;99.90
10692;DHT22;5396;50.950;6.988;2022-10-17T15:34:37;21.60;99.90
10692;DHT22;5396;50.950;6.988;2022-10-17T15:37:03;21.50;99.90
10692;DHT22;5396;50.950;6.988;2022-10-17T15:39:29;21.50;99.90
10692;DHT22;5396;50.950;6.988;2022-10-17T15:41:55;21.50;99.90
10692;DHT22;5396;50.950;6.988;2022-10-17T15:44:20;21.40;99.90
10692;DHT22;5396;50.950;6.988;2022-10-17T15:46:46;21.40;99.90
10692;DHT22;5396;50.950;6.988;2022-10-17T15:49:17;21.40;99.90
10692;DHT22;5396;50.950;6.988;2022-10-17T15:51:44;21.40;99.90
10692;DHT22;5396;50.950;6.988;2022-10-17T15:54:10;21.30;99.90
10692;DHT22;5396;50.950;6.988;2022-10-17T15:56:38;21.30;99.90
10692;DHT22;5396;50.950;6.988;2022-10-17T15:59:10;21.30;99.90
10692;DHT22;5396;50.950;6.988;2022-10-17T16:01:37;21.30;99.90
10692;DHT22;5396;50.950;6.988;2022-10-17T16:04:03;21.20;99.90
10692;DHT22;5396;50.950;6.988;2022-10-17T16:06:29;21.20;99.90
10692;DHT22;5396;50.950;6.988;2022-10-17T16:08:55;21.20;99.90
10692;DHT22;5396;50.950;6.988;2022-10-17T16:11:28;21.20;99.90
10692;DHT22;5396;50.950;6.988;2022-10-17T16:13:57;21.10;99.90
10692;DHT22;5396;50.950;6.988;2022-10-17T16:16:23;21.10;99.90
10692;DHT22;5396;50.950;6.988;2022-10-17T16:18:48;21.00;99.90
10692;DHT22;5396;50.950;6.988;2022-10-17T16:21:16;20.90;99.90
10692;DHT22;5396;50.950;6.988;2022-10-17T16:23:44;20.90;99.90
10692;DHT22;5396;50.950;6.988;2022-10-17T16:26:10;20.80;99.90
10692;DHT22;5396;50.950;6.988;2022-10-17T16:28:39;20.80;99.90
10692;DHT22;5396;50.950;6.988;2022-10-17T16:31:07;20.70;99.90
10692;DHT22;5396;50.950;6.988;2022-10-17T16:33:34;20.50;99.90
10692;DHT22;5396;50.950;6.988;2022-10-17T16:36:01;20.30;99.90
10692;DHT22;5396;50.950;6.988;2022-10-17T16:38:26;20.00;99.90
10692;DHT22;5396;50.950;6.988;2022-10-17T16:40:52;19.90;99.90
10692;DHT22;5396;50.950;6.988;2022-10-17T16:43:17;19.70;99.90
10692;DHT22;5396;50.950;6.988;2022-10-17T16:45:43;19.60;99.90
10692;DHT22;5396;50.950;6.988;2022-10-17T16:48:09;19.50;99.90
10692;DHT22;5396;50.950;6.988;2022-10-17T16:50:38;19.40;99.90
10692;DHT22;5396;50.950;6.988;2022-10-17T16:53:03;19.30;99.90
10692;DHT22;5396;50.950;6.988;2022-10-17T16:55:29;19.20;99.90
10692;DHT22;5396;50.950;6.988;2022-10-17T16:57:54;19.20;99.90
10692;DHT22;5396;50.950;6.988;2022-10-17T17:00:20;19.10;99.90
10692;DHT22;5396;50.950;6.988;2022-10-17T17:02:46;19.10;99.90
10692;DHT22;5396;50.950;6.988;2022-10-17T17:05:12;19.00;99.90
10692;DHT22;5396;50.950;6.988;2022-10-17T17:07:38;18.90;99.90
10692;DHT22;5396;50.950;6.988;2022-10-17T17:10:04;18.80;99.90
10692;DHT22;5396;50.950;6.988;2022-10-17T17:12:32;18.80;99.90
10692;DHT22;5396;50.950;6.988;2022-10-17T17:14:58;18.70;99.90